createdAt,value
2023-03-17T00:00:41.395Z,95868.81
2023-03-17T00:01:51.208Z,95876.50
2023-03-17T00:02:53.557Z,95876.53
2023-03-17T00:03:58.979Z,95874.84
2023-03-17T00:05:01.045Z,95874.84
2023-03-17T00:06:07.224Z,95875.72
2023-03-17T00:07:15.073Z,95880.00
2023-03-17T00:08:24.759Z,95882.56
2023-03-17T00:09:29.447Z,95879.19
2023-03-17T00:10:34.188Z,95880.06
2023-03-17T00:11:36.225Z,95885.25
2023-03-17T00:12:41.383Z,95875.91
2023-03-17T00:13:43.856Z,95876.78
2023-03-17T00:14:48.711Z,95875.06
2023-03-17T00:15:57.174Z,95881.88
2023-03-17T00:16:59.400Z,95880.16
2023-03-17T00:18:04.187Z,95884.44
2023-03-17T00:19:06.343Z,95881.88
2023-03-17T00:20:17.618Z,95882.78
2023-03-17T00:21:26.207Z,95881.06
2023-03-17T00:22:30.957Z,95877.66
2023-03-17T00:23:33.120Z,95874.25
2023-03-17T00:24:40.362Z,95872.59
2023-03-17T00:25:43.413Z,95872.63
2023-03-17T00:26:48.406Z,95866.69
2023-03-17T00:27:51.170Z,95867.59
2023-03-17T00:28:57.097Z,95870.97
2023-03-17T00:29:59.635Z,95860.81
2023-03-17T00:31:05.247Z,95865.09
2023-03-17T00:32:16.790Z,95860.00
2023-03-17T00:33:28.508Z,95857.44
2023-03-17T00:34:34.427Z,95860.88
2023-03-17T00:35:36.567Z,95857.50
2023-03-17T00:36:41.359Z,95851.47
2023-03-17T00:37:44.066Z,95850.59
2023-03-17T00:38:49.862Z,95849.69
2023-03-17T00:39:54.956Z,95848.00
2023-03-17T00:40:59.597Z,95842.91
2023-03-17T00:42:01.652Z,95842.91
2023-03-17T00:43:08.384Z,95847.13
2023-03-17T00:44:10.416Z,95835.16
2023-03-17T00:45:15.901Z,95833.44
2023-03-17T00:46:24.483Z,95832.59
2023-03-17T00:47:29.192Z,95830.88
2023-03-17T00:48:31.278Z,95826.59
2023-03-17T00:49:35.972Z,95832.47
2023-03-17T00:50:38.622Z,95827.28
2023-03-17T00:51:43.881Z,95832.38
2023-03-17T00:52:46.443Z,95830.59
2023-03-17T00:53:51.105Z,95827.16
2023-03-17T00:54:55.752Z,95826.31
2023-03-17T00:56:00.607Z,95822.09
2023-03-17T00:57:02.827Z,95821.22
2023-03-17T00:58:16.416Z,95810.06
2023-03-17T00:59:26.449Z,95811.75
2023-03-17T01:00:32.886Z,95813.44
2023-03-17T01:01:35.244Z,95818.56
2023-03-17T01:02:39.916Z,95811.69
2023-03-17T01:03:42.029Z,95811.72
2023-03-17T01:04:52.859Z,95813.38
2023-03-17T01:06:03.236Z,95816.81
2023-03-17T01:07:11.263Z,95807.50
2023-03-17T01:08:16.934Z,95805.78
2023-03-17T01:09:20.538Z,95813.47
2023-03-17T01:10:30.052Z,95810.91
2023-03-17T01:11:32.411Z,95807.53
2023-03-17T01:12:37.131Z,95800.69
2023-03-17T01:13:40.562Z,95800.69
2023-03-17T01:14:45.347Z,95796.34
2023-03-17T01:15:49.079Z,95798.78
2023-03-17T01:16:55.395Z,95800.41
2023-03-17T01:17:58.668Z,95797.81
2023-03-17T01:19:03.292Z,95802.84
2023-03-17T01:20:06.758Z,95796.81
2023-03-17T01:21:11.418Z,95789.97
2023-03-17T01:22:14.309Z,95796.69
2023-03-17T01:23:19.274Z,95783.81
2023-03-17T01:24:21.389Z,95793.19
2023-03-17T01:25:29.264Z,95783.78
2023-03-17T01:26:32.121Z,95785.38
2023-03-17T01:27:37.905Z,95781.06
2023-03-17T01:28:40.012Z,95775.88
2023-03-17T01:29:44.981Z,95773.25
2023-03-17T01:30:47.569Z,95777.38
2023-03-17T01:31:53.100Z,95776.47
2023-03-17T01:32:56.369Z,95773.88
2023-03-17T01:34:01.219Z,95777.22
2023-03-17T01:35:04.799Z,95783.97
2023-03-17T01:36:10.466Z,95771.97
2023-03-17T01:37:13.594Z,95773.66
2023-03-17T01:38:18.333Z,95776.97
2023-03-17T01:39:20.563Z,95772.63
2023-03-17T01:40:30.729Z,95770.91
2023-03-17T01:41:34.658Z,95775.13
2023-03-17T01:42:39.712Z,95777.53
2023-03-17T01:43:41.839Z,95774.94
2023-03-17T01:45:00.777Z,95777.50
2023-03-17T01:46:21.112Z,95768.00
2023-03-17T01:47:28.697Z,95768.84
2023-03-17T01:48:35.150Z,95772.19
2023-03-17T01:49:42.364Z,95767.94
2023-03-17T01:50:46.950Z,95766.28
2023-03-17T01:52:05.172Z,95766.34
2023-03-17T01:53:07.669Z,95763.81
2023-03-17T01:54:14.670Z,95762.13
2023-03-17T01:55:19.017Z,95766.28
2023-03-17T01:56:26.560Z,95759.50
2023-03-17T01:57:37.256Z,95760.41
2023-03-17T01:58:39.734Z,95766.34
2023-03-17T01:59:49.594Z,95766.25
2023-03-17T02:00:52.053Z,95768.84
2023-03-17T02:02:03.053Z,95767.16
2023-03-17T02:03:06.218Z,95761.19
2023-03-17T02:04:11.639Z,95758.63
2023-03-17T02:05:17.080Z,95756.03
2023-03-17T02:06:22.301Z,95761.97
2023-03-17T02:07:26.713Z,95758.56
2023-03-17T02:08:31.437Z,95768.75
2023-03-17T02:09:34.564Z,95767.84
2023-03-17T02:10:39.207Z,95767.91
2023-03-17T02:11:44.889Z,95762.78
2023-03-17T02:12:53.838Z,95764.47
2023-03-17T02:13:55.838Z,95762.72
2023-03-17T02:15:01.049Z,95767.84
2023-03-17T02:16:04.383Z,95757.59
2023-03-17T02:17:10.050Z,95759.22
2023-03-17T02:18:13.759Z,95765.16
2023-03-17T02:19:18.494Z,95757.50
2023-03-17T02:20:50.940Z,95762.59
2023-03-17T02:21:59.723Z,95760.88
2023-03-17T02:23:02.547Z,95756.66
2023-03-17T02:24:12.267Z,95754.06
2023-03-17T02:25:14.812Z,95761.78
2023-03-17T02:26:21.344Z,95755.84
2023-03-17T02:27:33.935Z,95750.72
2023-03-17T02:28:36.058Z,95750.63
2023-03-17T02:29:40.720Z,95754.84
2023-03-17T02:30:43.515Z,95757.34
2023-03-17T02:31:48.349Z,95755.75
2023-03-17T02:32:50.792Z,95755.75
2023-03-17T02:33:55.740Z,95757.50
2023-03-17T02:34:58.173Z,95754.13
2023-03-17T02:36:03.316Z,95758.47
2023-03-17T02:37:08.548Z,95758.50
2023-03-17T02:38:13.728Z,95755.91
2023-03-17T02:39:15.876Z,95766.16
2023-03-17T02:40:20.666Z,95757.63
2023-03-17T02:41:23.483Z,95761.97
2023-03-17T02:42:28.160Z,95759.44
2023-03-17T02:43:30.258Z,95759.50
2023-03-17T02:44:35.030Z,95750.06
2023-03-17T02:45:36.982Z,95762.88
2023-03-17T02:46:41.622Z,95756.06
2023-03-17T02:47:43.755Z,95761.13
2023-03-17T02:48:48.911Z,95750.91
2023-03-17T02:49:51.306Z,95751.81
2023-03-17T02:50:56.047Z,95753.50
2023-03-17T02:51:58.270Z,95754.44
2023-03-17T02:53:05.506Z,95752.81
2023-03-17T02:54:10.529Z,95753.72
2023-03-17T02:55:12.576Z,95754.47
2023-03-17T02:56:17.230Z,95752.00
2023-03-17T02:57:19.321Z,95749.50
2023-03-17T02:58:23.927Z,95753.00
2023-03-17T02:59:28.782Z,95753.00
2023-03-17T03:00:31.265Z,95748.88
2023-03-17T03:01:36.407Z,95741.44
2023-03-17T03:02:39.322Z,95745.00
2023-03-17T03:03:43.958Z,95746.84
2023-03-17T03:04:46.428Z,95748.59
2023-03-17T03:05:51.326Z,95744.44
2023-03-17T03:06:53.809Z,95743.69
2023-03-17T03:07:58.476Z,95747.22
2023-03-17T03:09:03.909Z,95748.06
2023-03-17T03:10:10.020Z,95744.75
2023-03-17T03:11:12.218Z,95748.06
2023-03-17T03:12:17.040Z,95749.84
2023-03-17T03:13:19.181Z,95745.66
2023-03-17T03:14:24.109Z,95744.00
2023-03-17T03:15:26.265Z,95752.53
2023-03-17T03:16:30.990Z,95755.09
2023-03-17T03:17:33.159Z,95747.41
2023-03-17T03:18:38.238Z,95740.63
2023-03-17T03:19:40.844Z,95745.66
2023-03-17T03:20:46.295Z,95735.44
2023-03-17T03:21:48.363Z,95737.97
2023-03-17T03:22:52.949Z,95736.19
2023-03-17T03:23:55.001Z,95732.78
2023-03-17T03:25:02.436Z,95728.47
2023-03-17T03:26:04.813Z,95723.31
2023-03-17T03:27:09.409Z,95724.13
2023-03-17T03:28:11.730Z,95724.03
2023-03-17T03:29:16.936Z,95718.00
2023-03-17T03:30:19.392Z,95711.16
2023-03-17T03:31:24.034Z,95718.81
2023-03-17T03:32:26.544Z,95718.81
2023-03-17T03:33:31.396Z,95720.50
2023-03-17T03:34:33.368Z,95716.22
2023-03-17T03:35:38.125Z,95713.69
2023-03-17T03:36:40.239Z,95719.66
2023-03-17T03:37:44.931Z,95714.53
2023-03-17T03:38:46.928Z,95717.94
2023-03-17T03:39:52.306Z,95715.31
2023-03-17T03:40:56.956Z,95711.06
2023-03-17T03:42:01.615Z,95701.59
2023-03-17T03:43:16.238Z,95708.44
2023-03-17T03:44:27.248Z,95711.00
2023-03-17T03:45:29.609Z,95709.22
2023-03-17T03:46:34.325Z,95721.16
2023-03-17T03:47:36.398Z,95715.28
2023-03-17T03:48:41.067Z,95719.50
2023-03-17T03:49:43.157Z,95712.72
2023-03-17T03:50:47.772Z,95717.81
2023-03-17T03:51:49.819Z,95709.34
2023-03-17T03:52:54.490Z,95716.97
2023-03-17T03:53:56.571Z,95717.88
2023-03-17T03:55:01.270Z,95718.75
2023-03-17T03:56:07.051Z,95716.28
2023-03-17T03:57:11.918Z,95715.47
2023-03-17T03:58:14.911Z,95718.03
2023-03-17T03:59:19.540Z,95717.25
2023-03-17T04:00:22.146Z,95709.63
2023-03-17T04:01:27.140Z,95713.06
2023-03-17T04:02:29.943Z,95717.44
2023-03-17T04:03:34.621Z,95718.28
2023-03-17T04:04:37.183Z,95709.88
2023-03-17T04:05:42.041Z,95717.66
2023-03-17T04:06:44.053Z,95714.97
2023-03-17T04:07:49.053Z,95708.28
2023-03-17T04:08:51.056Z,95714.25
2023-03-17T04:09:55.731Z,95711.75
2023-03-17T04:10:57.831Z,95715.28
2023-03-17T04:12:05.061Z,95706.94
2023-03-17T04:13:08.530Z,95712.22
2023-03-17T04:14:13.439Z,95710.59
2023-03-17T04:15:17.982Z,95705.66
2023-03-17T04:16:22.768Z,95717.66
2023-03-17T04:17:24.931Z,95716.06
2023-03-17T04:18:29.508Z,95727.13
2023-03-17T04:19:31.545Z,95728.03
2023-03-17T04:20:36.252Z,95721.31
2023-03-17T04:21:38.274Z,95723.13
2023-03-17T04:22:43.222Z,95724.09
2023-03-17T04:23:45.236Z,95730.13
2023-03-17T04:24:49.845Z,95721.72
2023-03-17T04:25:52.990Z,95725.22
2023-03-17T04:26:57.605Z,95723.59
2023-03-17T04:28:02.325Z,95732.22
2023-03-17T04:29:08.136Z,95727.19
2023-03-17T04:30:13.923Z,95729.81
2023-03-17T04:31:18.660Z,95727.25
2023-03-17T04:32:21.090Z,95726.50
2023-03-17T04:33:25.737Z,95728.28
2023-03-17T04:34:28.361Z,95718.97
2023-03-17T04:35:33.096Z,95719.94
2023-03-17T04:36:35.154Z,95723.38
2023-03-17T04:37:39.798Z,95722.47
2023-03-17T04:38:41.829Z,95722.56
2023-03-17T04:39:46.488Z,95722.59
2023-03-17T04:40:49.711Z,95731.06
2023-03-17T04:41:54.280Z,95728.50
2023-03-17T04:42:56.242Z,95720.84
2023-03-17T04:44:03.470Z,95726.75
2023-03-17T04:45:07.180Z,95714.97
2023-03-17T04:46:12.164Z,95718.34
2023-03-17T04:47:14.216Z,95724.28
2023-03-17T04:48:18.829Z,95720.88
2023-03-17T04:49:21.385Z,95726.81
2023-03-17T04:50:26.574Z,95721.81
2023-03-17T04:51:28.710Z,95719.34
2023-03-17T04:52:33.647Z,95721.97
2023-03-17T04:53:35.788Z,95719.44
2023-03-17T04:54:40.536Z,95723.66
2023-03-17T04:55:42.805Z,95716.88
2023-03-17T04:56:47.503Z,95717.72
2023-03-17T04:57:49.494Z,95719.44
2023-03-17T04:58:54.173Z,95718.59
2023-03-17T04:59:58.790Z,95721.22
2023-03-17T05:01:03.845Z,95714.41
2023-03-17T05:02:06.654Z,95715.16
2023-03-17T05:03:25.998Z,95713.38
2023-03-17T05:04:32.058Z,95716.69
2023-03-17T05:05:37.202Z,95703.91
2023-03-17T05:06:40.752Z,95705.63
2023-03-17T05:07:45.511Z,95705.59
2023-03-17T05:08:47.481Z,95708.06
2023-03-17T05:09:52.132Z,95702.97
2023-03-17T05:10:54.942Z,95703.72
2023-03-17T05:11:59.513Z,95703.66
2023-03-17T05:13:01.528Z,95701.03
2023-03-17T05:14:06.487Z,95703.59
2023-03-17T05:15:11.776Z,95704.41
2023-03-17T05:16:16.994Z,95704.50
2023-03-17T05:17:18.990Z,95704.50
2023-03-17T05:18:25.678Z,95705.41
2023-03-17T05:19:27.922Z,95699.44
2023-03-17T05:20:32.836Z,95704.50
2023-03-17T05:21:35.052Z,95697.72
2023-03-17T05:22:40.125Z,95701.97
2023-03-17T05:23:42.160Z,95698.69
2023-03-17T05:24:47.769Z,95691.91
2023-03-17T05:25:49.872Z,95699.63
2023-03-17T05:26:54.478Z,95699.69
2023-03-17T05:27:56.448Z,95699.72
2023-03-17T05:29:01.123Z,95698.94
2023-03-17T05:30:03.508Z,95703.28
2023-03-17T05:31:11.878Z,95701.63
2023-03-17T05:32:14.412Z,95697.34
2023-03-17T05:33:20.272Z,95696.59
2023-03-17T05:34:22.261Z,95694.06
2023-03-17T05:35:27.604Z,95686.38
2023-03-17T05:36:29.720Z,95686.31
2023-03-17T05:37:34.404Z,95689.69
2023-03-17T05:38:36.495Z,95691.34
2023-03-17T05:39:41.108Z,95687.09
2023-03-17T05:40:43.718Z,95691.34
2023-03-17T05:41:48.280Z,95693.91
2023-03-17T05:42:51.030Z,95694.75
2023-03-17T05:43:56.338Z,95693.97
2023-03-17T05:44:58.682Z,95692.25
2023-03-17T05:46:03.986Z,95687.16
2023-03-17T05:47:08.926Z,95689.69
2023-03-17T05:48:14.500Z,95692.19
2023-03-17T05:49:16.492Z,95695.56
2023-03-17T05:50:21.709Z,95685.22
2023-03-17T05:51:23.824Z,95691.16
2023-03-17T05:52:28.438Z,95685.16
2023-03-17T05:53:31.296Z,95689.34
2023-03-17T05:54:35.865Z,95691.91
2023-03-17T05:55:37.955Z,95687.50
2023-03-17T05:56:42.928Z,95685.69
2023-03-17T05:57:45.016Z,95692.41
2023-03-17T05:58:49.622Z,95693.22
2023-03-17T05:59:51.651Z,95695.00
2023-03-17T06:00:56.528Z,95694.06
2023-03-17T06:01:58.623Z,95703.34
2023-03-17T06:03:06.428Z,95691.38
2023-03-17T06:04:08.673Z,95691.25
2023-03-17T06:05:13.584Z,95694.56
2023-03-17T06:06:18.801Z,95697.13
2023-03-17T06:07:20.835Z,95692.78
2023-03-17T06:08:25.523Z,95697.81
2023-03-17T06:09:28.206Z,95699.47
2023-03-17T06:10:33.198Z,95701.97
2023-03-17T06:11:35.505Z,95707.88
2023-03-17T06:12:40.151Z,95700.16
2023-03-17T06:13:42.529Z,95700.97
2023-03-17T06:14:47.160Z,95709.31
2023-03-17T06:15:52.140Z,95703.31
2023-03-17T06:16:57.006Z,95703.28
2023-03-17T06:18:02.123Z,95704.03
2023-03-17T06:19:07.023Z,95694.63
2023-03-17T06:20:13.520Z,95700.50
2023-03-17T06:21:15.878Z,95691.03
2023-03-17T06:22:20.765Z,95690.06
2023-03-17T06:23:23.922Z,95687.34
2023-03-17T06:24:28.806Z,95691.53
2023-03-17T06:25:31.341Z,95690.44
2023-03-17T06:26:37.332Z,95689.41
2023-03-17T06:27:39.784Z,95689.25
2023-03-17T06:28:44.503Z,95692.44
2023-03-17T06:29:46.860Z,95684.50
2023-03-17T06:30:51.757Z,95691.16
2023-03-17T06:31:54.450Z,95686.59
2023-03-17T06:32:59.229Z,95679.56
2023-03-17T06:34:01.629Z,95684.38
2023-03-17T06:35:09.937Z,95685.81
2023-03-17T06:36:12.475Z,95686.34
2023-03-17T06:37:17.152Z,95678.38
2023-03-17T06:38:22.083Z,95676.44
2023-03-17T06:39:24.207Z,95675.31
2023-03-17T06:40:28.994Z,95670.81
2023-03-17T06:41:30.980Z,95672.25
2023-03-17T06:42:35.644Z,95670.38
2023-03-17T06:43:37.660Z,95675.28
2023-03-17T06:44:42.457Z,95675.88
2023-03-17T06:45:47.013Z,95681.59
2023-03-17T06:46:49.564Z,95694.19
2023-03-17T06:47:54.178Z,95690.69
2023-03-17T06:48:56.145Z,95691.44
2023-03-17T06:50:00.917Z,95692.97
2023-03-17T06:51:05.955Z,95687.75
2023-03-17T06:52:11.767Z,95691.09
2023-03-17T06:53:16.584Z,95689.28
2023-03-17T06:54:19.336Z,95695.16
2023-03-17T06:55:24.134Z,95682.25
2023-03-17T06:56:30.338Z,95693.19
2023-03-17T06:57:35.922Z,95690.53
2023-03-17T06:58:38.050Z,95689.50
2023-03-17T06:59:42.729Z,95688.44
2023-03-17T07:00:49.017Z,95691.66
2023-03-17T07:01:53.717Z,95689.78
2023-03-17T07:02:55.912Z,95697.97
2023-03-17T07:04:01.145Z,95693.59
2023-03-17T07:05:04.678Z,95693.31
2023-03-17T07:06:12.173Z,95685.44
2023-03-17T07:07:14.181Z,95695.38
2023-03-17T07:08:18.733Z,95693.38
2023-03-17T07:09:20.976Z,95693.84
2023-03-17T07:10:26.254Z,95683.25
2023-03-17T07:11:29.353Z,95693.97
2023-03-17T07:12:34.394Z,95685.03
2023-03-17T07:13:39.370Z,95688.06
2023-03-17T07:14:41.873Z,95687.56
2023-03-17T07:15:48.402Z,95688.81
2023-03-17T07:16:50.554Z,95675.56
2023-03-17T07:17:55.181Z,95671.63
2023-03-17T07:18:57.168Z,95676.38
2023-03-17T07:20:01.836Z,95668.22
2023-03-17T07:21:04.036Z,95666.88
2023-03-17T07:22:12.953Z,95674.09
2023-03-17T07:23:16.449Z,95667.69
2023-03-17T07:24:21.036Z,95674.00
2023-03-17T07:25:25.802Z,95664.91
2023-03-17T07:26:27.847Z,95666.91
2023-03-17T07:27:32.488Z,95664.59
2023-03-17T07:28:34.600Z,95658.94
2023-03-17T07:29:39.207Z,95663.53
2023-03-17T07:30:46.964Z,95658.69
2023-03-17T07:31:49.558Z,95654.66
2023-03-17T07:32:54.228Z,95652.41
2023-03-17T07:33:59.622Z,95654.34
2023-03-17T07:35:01.696Z,95656.28
2023-03-17T07:36:07.416Z,95655.72
2023-03-17T07:37:15.440Z,95656.72
2023-03-17T07:38:19.167Z,95658.66
2023-03-17T07:39:23.862Z,95651.13
2023-03-17T07:40:26.839Z,95657.28
2023-03-17T07:41:31.485Z,95658.25
2023-03-17T07:42:34.106Z,95650.63
2023-03-17T07:43:39.621Z,95642.19
2023-03-17T07:44:41.975Z,95647.41
2023-03-17T07:45:47.166Z,95646.56
2023-03-17T07:46:49.328Z,95653.44
2023-03-17T07:47:54.103Z,95651.81
2023-03-17T07:48:56.939Z,95654.47
2023-03-17T07:50:01.560Z,95646.72
2023-03-17T07:51:07.497Z,95647.47
2023-03-17T07:52:12.794Z,95651.75
2023-03-17T07:53:17.677Z,95646.72
2023-03-17T07:54:22.394Z,95639.00
2023-03-17T07:55:27.117Z,95645.97
2023-03-17T07:56:30.080Z,95644.41
2023-03-17T07:57:34.722Z,95649.97
2023-03-17T07:58:37.143Z,95644.91
2023-03-17T07:59:42.482Z,95647.13
2023-03-17T08:00:47.252Z,95643.72
2023-03-17T08:01:49.478Z,95644.72
2023-03-17T08:03:08.960Z,95645.09
2023-03-17T08:04:13.490Z,95635.63
2023-03-17T08:05:18.116Z,95645.44
2023-03-17T08:06:21.688Z,95639.84
2023-03-17T08:07:29.028Z,95638.47
2023-03-17T08:08:31.013Z,95634.56
2023-03-17T08:09:35.860Z,95635.22
2023-03-17T08:10:37.880Z,95637.53
2023-03-17T08:11:42.864Z,95634.53
2023-03-17T08:12:44.913Z,95639.41
2023-03-17T08:13:50.007Z,95633.84
2023-03-17T08:14:52.027Z,95636.78
2023-03-17T08:15:57.064Z,95637.09
2023-03-17T08:17:01.740Z,95634.13
2023-03-17T08:18:07.054Z,95635.38
2023-03-17T08:19:11.893Z,95630.72
2023-03-17T08:20:14.402Z,95628.75
2023-03-17T08:21:19.208Z,95627.72
2023-03-17T08:22:23.846Z,95628.25
2023-03-17T08:23:28.468Z,95628.03
2023-03-17T08:24:33.115Z,95628.56
2023-03-17T08:25:37.791Z,95626.59
2023-03-17T08:26:39.862Z,95622.97
2023-03-17T08:27:44.489Z,95626.09
2023-03-17T08:28:47.028Z,95625.88
2023-03-17T08:29:51.964Z,95629.22
2023-03-17T08:30:57.912Z,95627.97
2023-03-17T08:32:02.561Z,95631.94
2023-03-17T08:33:04.733Z,95622.16
2023-03-17T08:34:10.183Z,95621.50
2023-03-17T08:35:12.868Z,95624.03
2023-03-17T08:36:17.687Z,95614.66
2023-03-17T08:37:19.778Z,95622.72
2023-03-17T08:38:24.430Z,95613.31
2023-03-17T08:39:29.980Z,95616.91
2023-03-17T08:40:34.971Z,95608.97
2023-03-17T08:41:38.579Z,95609.84
2023-03-17T08:42:43.227Z,95605.06
2023-03-17T08:43:47.204Z,95594.84
2023-03-17T08:44:52.057Z,95595.19
2023-03-17T08:46:01.763Z,95602.41
2023-03-17T08:47:06.858Z,95595.69
2023-03-17T08:48:09.690Z,95599.06
2023-03-17T08:49:15.219Z,95596.22
2023-03-17T08:50:20.077Z,95595.28
2023-03-17T08:51:25.691Z,95593.16
2023-03-17T08:52:30.393Z,95595.88
2023-03-17T08:53:32.807Z,95597.63
2023-03-17T08:54:40.192Z,95603.09
2023-03-17T08:55:42.408Z,95595.81
2023-03-17T08:56:47.045Z,95590.53
2023-03-17T08:57:49.564Z,95599.91
2023-03-17T08:58:54.798Z,95590.00
2023-03-17T08:59:57.039Z,95594.28
2023-03-17T09:01:02.993Z,95590.41
2023-03-17T09:02:08.800Z,95588.16
2023-03-17T09:03:10.885Z,95587.59
2023-03-17T09:04:15.547Z,95586.97
2023-03-17T09:05:18.643Z,95590.50
2023-03-17T09:06:23.557Z,95593.13
2023-03-17T09:07:28.206Z,95584.44
2023-03-17T09:08:30.390Z,95586.03
2023-03-17T09:09:36.638Z,95593.75
2023-03-17T09:10:44.476Z,95590.91
2023-03-17T09:11:46.647Z,95591.53
2023-03-17T09:12:51.766Z,95584.09
2023-03-17T09:13:54.511Z,95586.16
2023-03-17T09:14:59.624Z,95579.56
2023-03-17T09:16:02.774Z,95584.13
2023-03-17T09:17:08.569Z,95581.47
2023-03-17T09:18:10.837Z,95584.44
2023-03-17T09:19:15.399Z,95586.75
2023-03-17T09:20:17.480Z,95591.66
2023-03-17T09:21:23.738Z,95599.56
2023-03-17T09:22:25.709Z,95593.50
2023-03-17T09:23:30.435Z,95589.16
2023-03-17T09:24:32.636Z,95594.72
2023-03-17T09:25:37.676Z,95604.91
2023-03-17T09:26:44.874Z,95596.94
2023-03-17T09:27:49.654Z,95585.97
2023-03-17T09:28:51.720Z,95590.94
2023-03-17T09:29:56.407Z,95593.75
2023-03-17T09:30:59.285Z,95599.00
2023-03-17T09:32:04.131Z,95593.69
2023-03-17T09:33:06.567Z,95588.41
2023-03-17T09:34:11.281Z,95594.13
2023-03-17T09:35:13.616Z,95603.19
2023-03-17T09:36:18.283Z,95605.72
2023-03-17T09:37:20.301Z,95608.25
2023-03-17T09:38:25.262Z,95610.69
2023-03-17T09:39:27.652Z,95614.25
2023-03-17T09:40:35.938Z,95604.66
2023-03-17T09:42:11.026Z,95614.75
2023-03-17T09:43:27.247Z,95603.09
2023-03-17T09:44:42.922Z,95586.72
2023-03-17T09:45:48.117Z,95591.09
2023-03-17T09:46:59.611Z,95583.72
2023-03-17T09:48:25.368Z,95592.50
2023-03-17T09:49:36.485Z,95592.78
2023-03-17T09:50:47.885Z,95593.88
2023-03-17T09:51:53.359Z,95589.16
2023-03-17T09:52:58.539Z,95592.59
2023-03-17T09:54:05.979Z,95597.50
2023-03-17T09:55:13.260Z,95588.19
2023-03-17T09:56:20.344Z,95590.41
2023-03-17T09:57:32.289Z,95589.16
2023-03-17T09:58:40.390Z,95589.47
2023-03-17T09:59:44.234Z,95584.41
2023-03-17T10:00:48.815Z,95581.69
2023-03-17T10:01:50.885Z,95580.63
2023-03-17T10:02:55.819Z,95585.41
2023-03-17T10:04:00.508Z,95575.16
2023-03-17T10:05:20.758Z,95573.53
2023-03-17T10:06:37.870Z,95582.66
2023-03-17T10:07:45.007Z,95579.13
2023-03-17T10:08:57.784Z,95573.41
2023-03-17T10:10:05.311Z,95572.88
2023-03-17T10:11:19.005Z,95568.78
2023-03-17T10:12:36.248Z,95575.47
2023-03-17T10:13:55.316Z,95570.84
2023-03-17T10:15:01.681Z,95563.06
2023-03-17T10:16:10.399Z,95568.06
2023-03-17T10:17:17.611Z,95557.50
2023-03-17T10:18:27.698Z,95560.69
2023-03-17T10:19:32.873Z,95565.91
2023-03-17T10:20:44.880Z,95550.50
2023-03-17T10:21:54.425Z,95564.75
2023-03-17T10:22:58.344Z,95566.66
2023-03-17T10:24:03.770Z,95568.88
2023-03-17T10:25:12.971Z,95559.81
2023-03-17T10:26:29.218Z,95574.94
2023-03-17T10:27:37.485Z,95567.00
2023-03-17T10:28:42.567Z,95559.56
2023-03-17T10:29:46.510Z,95568.47
2023-03-17T10:30:53.084Z,95563.16
2023-03-17T10:31:58.580Z,95576.69
2023-03-17T10:33:07.240Z,95571.91
2023-03-17T10:34:14.380Z,95553.97
2023-03-17T10:35:20.366Z,95565.84
2023-03-17T10:36:35.550Z,95562.00
2023-03-17T10:37:43.352Z,95557.06
2023-03-17T10:38:52.431Z,95564.16
2023-03-17T10:39:59.958Z,95565.81
2023-03-17T10:41:10.382Z,95568.31
2023-03-17T10:42:21.904Z,95554.47
2023-03-17T10:43:29.573Z,95556.03
2023-03-17T10:44:46.854Z,95563.38
2023-03-17T10:45:58.876Z,95550.06
2023-03-17T10:47:03.816Z,95559.03
2023-03-17T10:48:12.389Z,95554.28
2023-03-17T10:49:18.359Z,95552.41
2023-03-17T10:50:26.197Z,95553.00
2023-03-17T10:51:35.643Z,95547.09
2023-03-17T10:52:39.847Z,95550.59
2023-03-17T10:53:45.694Z,95533.13
2023-03-17T10:54:48.584Z,95551.13
2023-03-17T10:55:55.633Z,95546.53
2023-03-17T10:57:02.143Z,95551.97
2023-03-17T10:58:09.761Z,95549.16
2023-03-17T10:59:19.586Z,95552.47
2023-03-17T11:00:26.429Z,95557.69
2023-03-17T11:01:30.552Z,95558.84
2023-03-17T11:02:46.703Z,95560.03
2023-03-17T11:03:49.474Z,95558.41
2023-03-17T11:04:58.475Z,95559.41
2023-03-17T11:06:04.028Z,95548.94
2023-03-17T11:07:12.905Z,95543.63
2023-03-17T11:08:18.662Z,95547.06
2023-03-17T11:09:23.947Z,95541.88
2023-03-17T11:10:28.018Z,95534.44
2023-03-17T11:11:34.823Z,95532.03
2023-03-17T11:12:40.245Z,95543.50
2023-03-17T11:13:44.907Z,95527.56
2023-03-17T11:14:50.578Z,95528.16
2023-03-17T11:16:01.023Z,95534.34
2023-03-17T11:17:09.260Z,95532.94
2023-03-17T11:18:21.752Z,95534.31
2023-03-17T11:19:34.415Z,95529.28
2023-03-17T11:20:50.645Z,95530.13
2023-03-17T11:22:00.192Z,95521.84
2023-03-17T11:23:11.543Z,95518.19
2023-03-17T11:24:17.824Z,95521.34
2023-03-17T11:25:23.704Z,95522.34
2023-03-17T11:26:44.252Z,95520.66
2023-03-17T11:27:52.259Z,95519.00
2023-03-17T11:29:07.342Z,95529.41
2023-03-17T11:30:32.501Z,95515.34
2023-03-17T11:31:42.581Z,95528.44
2023-03-17T11:32:52.143Z,95519.06
2023-03-17T11:34:05.447Z,95506.19
2023-03-17T11:35:31.797Z,95518.13
2023-03-17T11:36:47.786Z,95525.38
2023-03-17T11:38:13.371Z,95502.94
2023-03-17T11:39:23.420Z,95494.28
2023-03-17T11:40:32.607Z,95496.28
2023-03-17T11:42:03.769Z,95510.81
2023-03-17T11:43:20.464Z,95512.06
2023-03-17T11:44:58.422Z,95504.94
2023-03-17T11:46:12.260Z,95507.78
2023-03-17T11:47:27.954Z,95506.81
2023-03-17T11:49:41.427Z,95515.31
2023-03-17T11:50:55.193Z,95512.34
2023-03-17T11:52:08.274Z,95497.88
2023-03-17T11:53:33.377Z,95496.41
2023-03-17T11:54:49.070Z,95496.34
2023-03-17T11:55:58.001Z,95510.13
2023-03-17T11:57:06.113Z,95501.59
2023-03-17T11:58:15.480Z,95491.41
2023-03-17T11:59:29.070Z,95495.47
2023-03-17T12:00:37.507Z,95513.28
2023-03-17T12:01:51.310Z,95514.69
2023-03-17T12:03:01.195Z,95498.47
2023-03-17T12:04:13.149Z,95494.31
2023-03-17T12:05:23.159Z,95483.84
2023-03-17T12:06:32.768Z,95492.75
2023-03-17T12:07:42.204Z,95479.25
2023-03-17T12:08:49.056Z,95487.63
2023-03-17T12:10:01.148Z,95473.28
2023-03-17T12:11:10.708Z,95473.81
2023-03-17T12:12:20.113Z,95477.50
2023-03-17T12:13:29.820Z,95468.50
2023-03-17T12:14:38.397Z,95455.84
2023-03-17T12:15:46.777Z,95456.19
2023-03-17T12:16:57.881Z,95459.13
2023-03-17T12:18:08.674Z,95460.81
2023-03-17T12:19:19.519Z,95449.53
2023-03-17T12:20:34.887Z,95464.09
2023-03-17T12:21:44.830Z,95464.53
2023-03-17T12:22:55.905Z,95464.19
2023-03-17T12:24:05.605Z,95452.88
2023-03-17T12:25:13.624Z,95462.44
2023-03-17T12:26:21.232Z,95454.63
2023-03-17T12:27:27.420Z,95448.53
2023-03-17T12:28:38.210Z,95454.28
2023-03-17T12:29:43.776Z,95460.63
2023-03-17T12:30:52.658Z,95457.13
2023-03-17T12:32:08.381Z,95446.69
2023-03-17T12:33:23.810Z,95442.66
2023-03-17T12:34:35.164Z,95458.72
2023-03-17T12:35:38.909Z,95457.00
2023-03-17T12:36:44.133Z,95441.44
2023-03-17T12:37:46.770Z,95440.25
2023-03-17T12:38:57.193Z,95456.75
2023-03-17T12:40:09.511Z,95449.09
2023-03-17T12:41:37.056Z,95419.41
2023-03-17T12:42:52.364Z,95425.03
2023-03-17T12:44:05.710Z,95432.88
2023-03-17T12:45:39.265Z,95422.16
2023-03-17T12:47:04.633Z,95425.66
2023-03-17T12:48:22.045Z,95427.44
2023-03-17T12:49:42.304Z,95438.56
2023-03-17T12:51:06.753Z,95435.84
2023-03-17T12:52:23.863Z,95432.66
2023-03-17T12:53:29.561Z,95439.91
2023-03-17T12:54:37.322Z,95448.94
2023-03-17T12:55:39.668Z,95447.47
2023-03-17T12:56:49.290Z,95444.06